Time;durP1;ratioP1;P1;durP2;ratioP2;P2;SDS_P1;SDS_P2;PMS_P1;PMS_P2;Temp;Humidity;BMP_temperature;BMP_pressure;BME280_temperature;BME280_humidity;BME280_pressure;Samples;Min_cycle;Max_cycle;Signal;HPM_P1;HPM_P2
2023/07/01 00:00:28;;;;;;;19.17;17.60;;;18.10;99.90;;;;;;4974932;28;20049;-84
2023/07/01 00:02:54;;;;;;;13.02;9.07;;;18.10;99.80;;;;;;4993911;28;20503;-83
2023/07/01 00:05:20;;;;;;;16.15;14.45;;;18.20;99.90;;;;;;5012417;28;20077;-83
2023/07/01 00:07:46;;;;;;;19.77;17.83;;;18.10;99.90;;;;;;4994876;28;20118;-84
2023/07/01 00:10:11;;;;;;;16.10;14.82;;;18.10;99.90;;;;;;4975364;28;20133;-84
2023/07/01 00:12:37;;;;;;;14.77;13.52;;;18.10;99.90;;;;;;4991145;28;20054;-84
2023/07/01 00:15:03;;;;;;;15.63;13.82;;;18.10;99.90;;;;;;4990886;28;20532;-84
2023/07/01 00:17:29;;;;;;;18.40;16.83;;;18.00;99.90;;;;;;4975150;28;20173;-84
2023/07/01 00:19:55;;;;;;;24.10;22.20;;;18.00;99.90;;;;;;4975507;28;20042;-83
2023/07/01 00:22:20;;;;;;;12.40;10.30;;;18.00;99.90;;;;;;4975154;28;20393;-84
2023/07/01 00:24:46;;;;;;;25.45;23.20;;;18.10;99.90;;;;;;4992712;28;20045;-84
2023/07/01 00:27:12;;;;;;;30.88;28.50;;;18.10;99.90;;;;;;4974954;28;20067;-84
2023/07/01 00:29:37;;;;;;;17.48;15.80;;;18.10;99.90;;;;;;4974410;28;20046;-83
2023/07/01 00:32:04;;;;;;;19.02;17.23;;;18.10;99.90;;;;;;4974664;28;20567;-83
2023/07/01 00:34:29;;;;;;;24.25;22.42;;;18.10;99.90;;;;;;4975230;28;20125;-84
2023/07/01 00:36:55;;;;;;;11.32;8.95;;;18.10;99.90;;;;;;4992666;28;20069;-84
2023/07/01 00:39:21;;;;;;;22.02;20.35;;;18.10;99.90;;;;;;4975653;28;20504;-83
2023/07/01 00:41:53;;;;;;;17.77;14.02;;;18.10;99.90;;;;;;4974769;28;20104;-84
2023/07/01 00:44:20;;;;;;;28.00;26.00;;;18.10;99.90;;;;;;4992573;28;20117;-84
2023/07/01 00:46:45;;;;;;;17.35;15.57;;;18.20;99.90;;;;;;4975059;28;20089;-84
2023/07/01 00:49:11;;;;;;;18.90;17.23;;;18.10;99.90;;;;;;4992530;28;20050;-84
2023/07/01 00:51:37;;;;;;;30.95;28.80;;;18.10;99.90;;;;;;4990770;28;20197;-83
2023/07/01 00:54:03;;;;;;;28.67;26.35;;;18.20;99.90;;;;;;4974905;28;20052;-84
2023/07/01 00:56:29;;;;;;;22.60;20.45;;;18.10;99.90;;;;;;4990031;28;20117;-84
2023/07/01 00:58:55;;;;;;;24.38;22.48;;;18.10;99.90;;;;;;4973840;28;20562;-85
2023/07/01 01:01:27;;;;;;;38.13;35.05;;;18.20;99.90;;;;;;4990184;28;20038;-85
2023/07/01 01:04:03;;;;;;;22.48;20.63;;;18.20;99.90;;;;;;4990620;28;20039;-84
2023/07/01 01:06:43;;;;;;;30.38;27.73;;;18.10;99.90;;;;;;4974279;28;20092;-84
2023/07/01 01:09:44;;;;;;;19.50;13.00;;;18.10;99.90;;;;;;4974212;28;20039;-84
2023/07/01 01:12:12;;;;;;;29.95;27.95;;;18.20;99.90;;;;;;4954678;28;20075;-85
2023/07/01 01:14:39;;;;;;;16.85;13.40;;;18.10;99.90;;;;;;4971037;28;20038;-84
2023/07/01 01:17:13;;;;;;;24.15;22.35;;;18.10;99.90;;;;;;4954992;28;20043;-85
2023/07/01 01:19:53;;;;;;;14.15;11.20;;;18.10;99.90;;;;;;4970570;28;20043;-85
2023/07/01 01:22:28;;;;;;;19.17;17.50;;;18.10;99.90;;;;;;4970618;28;20114;-85
2023/07/01 01:24:58;;;;;;;37.55;34.50;;;18.10;99.90;;;;;;4954978;28;20035;-84
2023/07/01 01:27:27;;;;;;;14.82;13.30;;;18.10;99.90;;;;;;4970633;28;20069;-85
2023/07/01 01:29:53;;;;;;;23.83;21.92;;;18.10;99.90;;;;;;4970522;28;20110;-83
2023/07/01 01:32:19;;;;;;;14.85;13.38;;;18.10;99.90;;;;;;4954753;28;20678;-84
2023/07/01 01:34:46;;;;;;;21.17;19.13;;;18.10;99.90;;;;;;4970654;28;20255;-84
2023/07/01 01:37:23;;;;;;;22.08;20.23;;;18.10;99.90;;;;;;4970794;28;20132;-84
2023/07/01 01:39:54;;;;;;;28.73;26.35;;;18.10;99.90;;;;;;4978767;28;20093;-85
2023/07/01 01:42:33;;;;;;;18.45;16.88;;;18.10;99.90;;;;;;4973759;28;20125;-84
2023/07/01 01:45:00;;;;;;;16.60;14.93;;;18.00;99.90;;;;;;4973356;28;20534;-84
2023/07/01 01:47:30;;;;;;;21.40;19.45;;;18.00;99.90;;;;;;4990606;28;20042;-84
2023/07/01 01:50:04;;;;;;;16.02;13.15;;;18.00;99.90;;;;;;4989857;28;20081;-84
2023/07/01 01:52:32;;;;;;;10.80;9.05;;;18.10;99.90;;;;;;4973541;28;20101;-84
2023/07/01 01:54:59;;;;;;;11.27;9.52;;;18.00;99.90;;;;;;4972695;28;20493;-84
2023/07/01 01:57:25;;;;;;;12.45;11.32;;;18.00;99.90;;;;;;4990629;28;20066;-85
2023/07/01 01:59:51;;;;;;;11.95;9.10;;;17.90;99.90;;;;;;4990776;28;20037;-82
2023/07/01 02:02:17;;;;;;;15.05;10.07;;;17.80;99.90;;;;;;4973093;28;20092;-84
2023/07/01 02:04:42;;;;;;;16.73;13.25;;;17.80;99.90;;;;;;4990385;28;20443;-84
2023/07/01 02:07:08;;;;;;;16.90;15.40;;;17.60;99.90;;;;;;4988963;28;20599;-83
2023/07/01 02:09:34;;;;;;;16.25;14.73;;;17.50;99.90;;;;;;4988508;28;20094;-84
2023/07/01 02:11:59;;;;;;;20.20;18.48;;;17.40;99.90;;;;;;4992238;28;20054;-84
2023/07/01 02:14:25;;;;;;;16.95;13.00;;;17.40;99.90;;;;;;4991950;28;20404;-84
2023/07/01 02:16:52;;;;;;;18.40;16.70;;;17.20;99.90;;;;;;4976209;28;20030;-84
2023/07/01 02:19:18;;;;;;;17.50;15.75;;;17.30;99.90;;;;;;4976179;28;20132;-84
2023/07/01 02:21:43;;;;;;;18.98;17.13;;;17.30;99.90;;;;;;4991988;28;20117;-84
2023/07/01 02:24:09;;;;;;;17.70;16.10;;;17.30;99.90;;;;;;4991559;28;20038;-84
2023/07/01 02:26:35;;;;;;;18.65;17.02;;;17.20;99.90;;;;;;4992706;28;20050;-84
2023/07/01 02:29:01;;;;;;;12.32;11.05;;;17.20;99.90;;;;;;4992362;28;20042;-83
2023/07/01 02:31:27;;;;;;;15.20;13.55;;;17.30;99.90;;;;;;4975994;28;20382;-84
2023/07/01 02:34:00;;;;;;;20.15;18.50;;;17.30;99.90;;;;;;4992201;28;20038;-84
2023/07/01 02:36:25;;;;;;;23.73;18.33;;;17.30;99.90;;;;;;4993127;28;20046;-84
2023/07/01 02:38:51;;;;;;;22.05;20.33;;;17.30;99.90;;;;;;4992008;28;20049;-84
2023/07/01 02:41:17;;;;;;;22.30;20.58;;;17.30;99.90;;;;;;4992745;28;20396;-84
2023/07/01 02:43:42;;;;;;;18.48;16.80;;;17.30;99.90;;;;;;4992028;28;20065;-84
2023/07/01 02:46:08;;;;;;;17.67;15.98;;;17.30;99.90;;;;;;4975665;28;20045;-84
2023/07/01 02:48:33;;;;;;;14.43;12.88;;;17.30;99.90;;;;;;4991916;28;20073;-84
2023/07/01 02:50:59;;;;;;;17.73;16.02;;;17.30;99.90;;;;;;4991798;28;20486;-84
2023/07/01 02:53:25;;;;;;;17.55;15.80;;;17.30;99.90;;;;;;4991623;28;20081;-84
2023/07/01 02:55:50;;;;;;;16.58;14.45;;;17.30;99.90;;;;;;4975773;28;20338;-84
2023/07/01 02:58:16;;;;;;;23.23;21.10;;;17.40;99.90;;;;;;5009597;28;20493;-84
2023/07/01 03:00:42;;;;;;;19.20;17.67;;;17.40;99.90;;;;;;5009349;28;20508;-84
2023/07/01 03:03:07;;;;;;;17.35;15.90;;;17.40;99.90;;;;;;4975552;28;20041;-83
2023/07/01 03:05:36;;;;;;;21.08;19.13;;;17.40;99.90;;;;;;4975802;28;20556;-84
2023/07/01 03:08:03;;;;;;;20.80;19.00;;;17.40;99.90;;;;;;4990929;28;20037;-84
2023/07/01 03:10:29;;;;;;;16.90;14.63;;;17.40;99.90;;;;;;5009083;28;20420;-84
2023/07/01 03:12:55;;;;;;;20.65;18.52;;;17.40;99.90;;;;;;4992073;28;20046;-84
2023/07/01 03:15:21;;;;;;;18.45;17.00;;;17.30;99.90;;;;;;4975707;28;20065;-84
2023/07/01 03:17:47;;;;;;;23.75;21.80;;;17.30;99.90;;;;;;4975864;28;20280;-84
2023/07/01 03:20:22;;;;;;;17.38;13.38;;;17.40;99.90;;;;;;4992175;28;20060;-85
2023/07/01 03:22:56;;;;;;;17.23;15.82;;;17.40;99.90;;;;;;4974807;28;20130;-84
2023/07/01 03:25:26;;;;;;;17.48;15.32;;;17.40;99.90;;;;;;5009613;28;20030;-84
2023/07/01 03:27:52;;;;;;;17.05;15.50;;;17.40;99.90;;;;;;4991418;28;20042;-84
2023/07/01 03:30:18;;;;;;;14.32;12.95;;;17.50;99.90;;;;;;4992062;28;20285;-84
2023/07/01 03:32:45;;;;;;;14.93;13.70;;;17.40;99.90;;;;;;4976327;28;20129;-83
2023/07/01 03:35:12;;;;;;;18.83;16.98;;;17.40;99.90;;;;;;4991528;28;20033;-84
2023/07/01 03:37:42;;;;;;;15.20;12.57;;;17.50;99.90;;;;;;4994012;28;20041;-84
2023/07/01 03:40:11;;;;;;;19.05;16.00;;;17.40;99.90;;;;;;4978914;28;20103;-85
2023/07/01 03:42:38;;;;;;;18.48;16.13;;;17.30;99.90;;;;;;4979000;28;20038;-84
2023/07/01 03:45:08;;;;;;;12.93;11.65;;;17.30;99.90;;;;;;4995295;28;20071;-84
2023/07/01 03:47:43;;;;;;;16.75;15.25;;;17.20;99.90;;;;;;4978744;28;20591;-84
2023/07/01 03:50:09;;;;;;;14.27;12.90;;;17.20;99.90;;;;;;4994801;28;20183;-84
2023/07/01 03:52:39;;;;;;;17.65;15.20;;;17.10;99.90;;;;;;4994419;28;20037;-84
2023/07/01 03:55:06;;;;;;;15.93;14.63;;;17.00;99.90;;;;;;4978919;28;20034;-84
2023/07/01 03:57:33;;;;;;;15.48;14.10;;;17.00;99.90;;;;;;5012490;28;20488;-84
2023/07/01 03:59:58;;;;;;;13.57;11.85;;;17.00;99.90;;;;;;4994805;28;20287;-84
2023/07/01 04:02:24;;;;;;;15.20;13.60;;;16.90;99.90;;;;;;4994916;28;20045;-84
2023/07/01 04:04:51;;;;;;;15.50;14.23;;;16.90;99.90;;;;;;4978169;28;20488;-85
2023/07/01 04:07:21;;;;;;;15.27;11.95;;;16.90;99.90;;;;;;4993710;28;20033;-83
2023/07/01 04:09:48;;;;;;;24.10;15.00;;;16.90;99.90;;;;;;4994543;28;20528;-84
2023/07/01 04:12:14;;;;;;;16.05;13.13;;;16.90;99.90;;;;;;5012187;28;20081;-84
2023/07/01 04:14:39;;;;;;;15.07;13.73;;;16.90;99.90;;;;;;4994426;28;20131;-84
2023/07/01 04:17:05;;;;;;;14.02;11.63;;;16.90;99.90;;;;;;5012575;28;20096;-84
2023/07/01 04:19:31;;;;;;;15.07;13.70;;;16.90;99.90;;;;;;4978381;28;20502;-85
2023/07/01 04:21:57;;;;;;;13.40;10.05;;;16.90;99.90;;;;;;5012204;28;20037;-84
2023/07/01 04:24:23;;;;;;;15.50;13.90;;;16.90;99.90;;;;;;4994589;28;20237;-84
2023/07/01 04:26:49;;;;;;;19.80;17.83;;;16.90;99.90;;;;;;4994216;28;20504;-85
2023/07/01 04:29:14;;;;;;;15.48;12.88;;;16.90;99.90;;;;;;4994906;28;20042;-84
2023/07/01 04:31:40;;;;;;;16.00;14.35;;;16.90;99.90;;;;;;4978609;28;20197;-84
2023/07/01 04:34:06;;;;;;;19.45;17.73;;;16.90;99.90;;;;;;4994026;28;20076;-84
2023/07/01 04:36:31;;;;;;;17.17;15.50;;;17.00;99.90;;;;;;4978356;28;20041;-84
2023/07/01 04:38:57;;;;;;;12.20;10.90;;;17.00;99.90;;;;;;4994711;28;20293;-84
2023/07/01 04:41:22;;;;;;;11.48;9.50;;;17.00;99.90;;;;;;4994490;28;20515;-84
2023/07/01 04:43:48;;;;;;;15.07;13.52;;;17.00;99.90;;;;;;4977972;28;20045;-84
2023/07/01 04:46:14;;;;;;;15.07;11.63;;;17.00;99.90;;;;;;4978241;28;20100;-85
2023/07/01 04:48:40;;;;;;;15.40;14.05;;;17.00;99.90;;;;;;4977115;28;20073;-84
2023/07/01 04:51:05;;;;;;;17.30;15.68;;;17.10;99.90;;;;;;4978077;28;20037;-84
2023/07/01 04:53:31;;;;;;;15.32;14.20;;;17.10;99.90;;;;;;4977861;28;20543;-85
2023/07/01 04:55:57;;;;;;;18.50;16.75;;;17.10;99.90;;;;;;4977983;28;20073;-84
2023/07/01 04:58:22;;;;;;;19.23;17.35;;;17.10;99.90;;;;;;4992813;28;20040;-83
2023/07/01 05:00:48;;;;;;;18.85;16.83;;;17.20;99.90;;;;;;5009700;28;20224;-82
2023/07/01 05:03:14;;;;;;;15.93;14.40;;;17.20;99.90;;;;;;4988092;28;20099;-85
2023/07/01 05:05:39;;;;;;;13.90;12.45;;;17.20;99.90;;;;;;5001581;28;20037;-84
2023/07/01 05:08:05;;;;;;;16.88;15.30;;;17.20;99.90;;;;;;4977211;28;20049;-84
2023/07/01 05:10:31;;;;;;;16.58;15.32;;;17.20;99.90;;;;;;4992998;28;20459;-83
2023/07/01 05:12:57;;;;;;;17.08;15.65;;;17.30;99.90;;;;;;4993417;28;20105;-84
2023/07/01 05:15:22;;;;;;;18.40;16.77;;;17.20;99.90;;;;;;4993337;28;20038;-84
2023/07/01 05:17:48;;;;;;;16.33;14.77;;;17.20;99.90;;;;;;4991696;28;20504;-82
2023/07/01 05:20:14;;;;;;;18.70;17.08;;;17.30;99.90;;;;;;4990094;28;20038;-84
2023/07/01 05:22:39;;;;;;;15.20;13.98;;;17.30;99.90;;;;;;4960492;28;20042;-84
2023/07/01 05:25:05;;;;;;;18.70;16.70;;;17.30;99.90;;;;;;5009621;28;20049;-84
2023/07/01 05:27:31;;;;;;;17.92;15.68;;;17.30;99.90;;;;;;5008522;28;20046;-83
2023/07/01 05:29:57;;;;;;;18.02;16.42;;;17.30;99.90;;;;;;5009964;28;20077;-84
2023/07/01 05:32:23;;;;;;;15.88;13.77;;;17.30;99.90;;;;;;4996551;28;20062;-83
2023/07/01 05:34:49;;;;;;;19.08;17.50;;;17.30;99.90;;;;;;4991102;28;20056;-84
2023/07/01 05:37:14;;;;;;;18.90;17.23;;;17.30;99.90;;;;;;4991597;28;20136;-84
2023/07/01 05:39:40;;;;;;;16.80;15.02;;;17.40;99.90;;;;;;4974741;28;20439;-84
2023/07/01 05:42:06;;;;;;;20.92;19.08;;;17.30;99.90;;;;;;5008675;28;20041;-83
2023/07/01 05:44:32;;;;;;;18.73;15.15;;;17.40;99.90;;;;;;4990998;28;20042;-83
2023/07/01 05:46:58;;;;;;;15.13;13.57;;;17.50;99.90;;;;;;5008366;28;20488;-84
2023/07/01 05:49:24;;;;;;;16.42;15.13;;;17.50;99.90;;;;;;5010153;28;20065;-84
2023/07/01 05:51:49;;;;;;;15.27;14.00;;;17.50;99.90;;;;;;4976392;28;20073;-84
2023/07/01 05:54:15;;;;;;;15.57;14.13;;;17.50;99.90;;;;;;4976147;28;20044;-84
2023/07/01 05:56:40;;;;;;;19.70;18.17;;;17.40;99.90;;;;;;4992546;28;20423;-84
2023/07/01 05:59:06;;;;;;;20.13;18.63;;;17.50;99.90;;;;;;4991863;28;20588;-83
2023/07/01 06:01:32;;;;;;;17.58;15.82;;;17.50;99.90;;;;;;4991847;28;20042;-82
2023/07/01 06:03:58;;;;;;;18.98;17.15;;;17.50;99.90;;;;;;4975857;28;20049;-84
2023/07/01 06:06:24;;;;;;;19.65;15.70;;;17.60;99.90;;;;;;4976453;28;20044;-83
2023/07/01 06:08:49;;;;;;;19.65;17.92;;;17.60;99.90;;;;;;4992221;28;20488;-83
2023/07/01 06:11:15;;;;;;;16.77;15.20;;;17.60;99.90;;;;;;4991944;28;20519;-83
2023/07/01 06:13:47;;;;;;;16.20;14.85;;;17.70;99.90;;;;;;5009443;28;20049;-84
2023/07/01 06:16:19;;;;;;;18.13;16.75;;;17.60;99.90;;;;;;5012195;28;20050;-84
2023/07/01 06:18:45;;;;;;;15.40;13.52;;;17.50;99.90;;;;;;4999484;28;20048;-84
2023/07/01 06:21:10;;;;;;;14.73;13.18;;;17.70;99.90;;;;;;4991604;28;20038;-84
2023/07/01 06:23:36;;;;;;;15.02;10.77;;;17.70;99.90;;;;;;4975201;28;20038;-87
2023/07/01 06:26:03;;;;;;;14.07;12.70;;;17.70;99.90;;;;;;4974968;28;20059;-83
2023/07/01 06:28:29;;;;;;;17.73;16.23;;;17.80;99.90;;;;;;4991825;28;20603;-85
2023/07/01 06:30:54;;;;;;;20.15;16.63;;;17.80;99.90;;;;;;4990969;28;20095;-83
2023/07/01 06:33:20;;;;;;;14.88;13.45;;;17.70;99.90;;;;;;4990903;28;20489;-84
2023/07/01 06:35:46;;;;;;;14.88;13.35;;;17.70;99.90;;;;;;4991607;28;20042;-84
2023/07/01 06:38:12;;;;;;;12.75;9.65;;;17.70;99.90;;;;;;5008686;28;20262;-84
2023/07/01 06:40:37;;;;;;;14.77;10.45;;;17.70;99.90;;;;;;4991601;28;20026;-83
2023/07/01 06:43:03;;;;;;;10.30;9.10;;;17.70;99.90;;;;;;4991147;28;20116;-83
2023/07/01 06:45:30;;;;;;;12.57;11.40;;;17.70;99.90;;;;;;4969980;28;20089;-83
2023/07/01 06:47:56;;;;;;;11.73;9.90;;;17.70;99.90;;;;;;4971570;28;20053;-82
2023/07/01 06:50:22;;;;;;;11.25;9.90;;;17.60;99.90;;;;;;4971850;28;20038;-84
2023/07/01 06:52:47;;;;;;;11.40;10.40;;;17.60;99.90;;;;;;4989017;28;20042;-84
2023/07/01 06:55:13;;;;;;;10.75;9.75;;;17.60;99.90;;;;;;4971627;28;20038;-83
2023/07/01 06:57:40;;;;;;;14.00;12.85;;;17.60;99.90;;;;;;4971659;28;20041;-83
2023/07/01 07:00:09;;;;;;;15.98;14.63;;;17.60;99.90;;;;;;4974412;28;20037;-83
2023/07/01 07:02:35;;;;;;;12.68;11.57;;;17.60;99.90;;;;;;4990998;28;20042;-83
2023/07/01 07:05:02;;;;;;;12.98;11.82;;;17.80;99.90;;;;;;4974627;28;20038;-83
2023/07/01 07:07:27;;;;;;;14.85;13.43;;;17.80;99.90;;;;;;4974688;28;20081;-83
2023/07/01 07:09:53;;;;;;;10.82;8.95;;;17.80;99.90;;;;;;4974527;28;20507;-83
2023/07/01 07:12:19;;;;;;;13.90;12.75;;;17.80;99.90;;;;;;5012133;28;20134;-83
2023/07/01 07:14:44;;;;;;;10.75;9.73;;;17.80;99.90;;;;;;4977667;28;20539;-81
2023/07/01 07:17:10;;;;;;;15.68;14.48;;;17.80;99.90;;;;;;4994688;28;20378;-81
2023/07/01 07:19:37;;;;;;;11.60;10.48;;;17.80;99.90;;;;;;4994880;28;20099;-81
2023/07/01 07:22:03;;;;;;;11.57;10.60;;;17.80;99.90;;;;;;4994715;28;20041;-81
2023/07/01 07:24:29;;;;;;;14.50;12.88;;;17.90;99.90;;;;;;4994766;28;20073;-81
2023/07/01 07:27:00;;;;;;;16.27;15.10;;;18.00;99.90;;;;;;4994733;28;20620;-81
2023/07/01 07:29:26;;;;;;;12.88;11.77;;;18.10;99.90;;;;;;4994132;28;20474;-81
2023/07/01 07:31:52;;;;;;;9.68;8.77;;;18.20;99.90;;;;;;4994691;28;20042;-81
2023/07/01 07:34:18;;;;;;;8.90;8.02;;;18.20;99.90;;;;;;4978457;28;20381;-83
2023/07/01 07:36:43;;;;;;;10.65;9.45;;;18.30;99.90;;;;;;4978096;28;20038;-83
2023/07/01 07:39:12;;;;;;;11.57;8.52;;;18.30;99.90;;;;;;4994584;28;20040;-83
2023/07/01 07:41:39;;;;;;;9.20;8.35;;;18.40;99.90;;;;;;4994361;28;20042;-83
2023/07/01 07:44:04;;;;;;;10.95;9.88;;;18.40;99.90;;;;;;4993636;28;20042;-83
2023/07/01 07:46:30;;;;;;;8.18;7.38;;;18.50;99.90;;;;;;4977908;28;20409;-83
2023/07/01 07:48:56;;;;;;;8.07;6.97;;;18.60;99.90;;;;;;4994177;28;20033;-83
2023/07/01 07:51:22;;;;;;;8.52;7.75;;;18.60;99.90;;;;;;4978459;28;20045;-86
2023/07/01 07:53:47;;;;;;;7.22;5.57;;;18.60;99.90;;;;;;4994257;28;20105;-82
2023/07/01 07:56:13;;;;;;;6.63;5.15;;;18.60;99.90;;;;;;4994103;28;20044;-83
2023/07/01 07:58:38;;;;;;;9.23;8.48;;;18.60;99.90;;;;;;4997659;28;20036;-85
2023/07/01 08:01:04;;;;;;;6.28;4.80;;;18.60;99.90;;;;;;5009301;28;20164;-85
2023/07/01 08:03:30;;;;;;;5.78;5.28;;;18.60;99.90;;;;;;5009827;28;20038;-84
2023/07/01 08:05:55;;;;;;;10.80;9.65;;;18.60;99.90;;;;;;4993519;28;20044;-85
2023/07/01 08:08:21;;;;;;;6.47;5.55;;;18.60;99.90;;;;;;5009015;28;20038;-84
2023/07/01 08:10:47;;;;;;;7.35;6.15;;;18.60;99.90;;;;;;5009127;28;20054;-83
2023/07/01 08:13:14;;;;;;;7.07;6.38;;;18.70;99.90;;;;;;4997608;28;20048;-84
2023/07/01 08:15:41;;;;;;;7.90;7.10;;;18.70;99.90;;;;;;5011289;28;20121;-84
2023/07/01 08:18:08;;;;;;;12.43;11.32;;;18.70;99.90;;;;;;5011141;28;20077;-84
2023/07/01 08:20:34;;;;;;;7.60;6.43;;;18.70;99.90;;;;;;4993302;28;20120;-83
2023/07/01 08:22:59;;;;;;;7.53;6.82;;;18.60;99.90;;;;;;5010688;28;20129;-84
2023/07/01 08:25:25;;;;;;;7.47;6.30;;;18.80;99.90;;;;;;4977030;28;20044;-84
2023/07/01 08:27:51;;;;;;;9.80;7.68;;;18.80;99.90;;;;;;4992693;28;20108;-84
2023/07/01 08:30:17;;;;;;;8.60;6.65;;;18.90;99.90;;;;;;4993409;28;20065;-84
2023/07/01 08:32:43;;;;;;;6.80;6.20;;;19.00;99.90;;;;;;4993351;28;20072;-84
2023/07/01 08:35:09;;;;;;;6.72;5.15;;;19.10;99.90;;;;;;4993703;28;20465;-84
2023/07/01 08:37:34;;;;;;;6.55;5.85;;;19.10;99.90;;;;;;4977074;28;20121;-84
2023/07/01 08:40:00;;;;;;;11.15;5.30;;;19.20;99.90;;;;;;4976916;28;20040;-84
2023/07/01 08:42:35;;;;;;;7.38;5.15;;;19.20;99.90;;;;;;4992445;28;20382;-84
2023/07/01 08:45:02;;;;;;;6.78;4.80;;;19.20;99.90;;;;;;4993002;28;20070;-84
2023/07/01 08:47:28;;;;;;;5.55;5.03;;;19.30;99.90;;;;;;4976841;28;20038;-84
2023/07/01 08:49:58;;;;;;;6.43;5.75;;;19.30;99.90;;;;;;4992902;28;20049;-83
2023/07/01 08:52:27;;;;;;;6.93;6.18;;;19.40;99.90;;;;;;4993132;28;20465;-84
2023/07/01 08:54:53;;;;;;;6.53;5.93;;;19.40;99.90;;;;;;5010402;28;20041;-84
2023/07/01 08:57:20;;;;;;;6.82;5.63;;;19.50;99.90;;;;;;4992147;28;20353;-84
2023/07/01 08:59:47;;;;;;;8.57;7.80;;;19.40;99.90;;;;;;4992964;28;20543;-84
2023/07/01 09:02:15;;;;;;;10.77;9.88;;;19.30;99.90;;;;;;4976790;28;20049;-84
2023/07/01 09:04:40;;;;;;;7.80;6.78;;;19.30;99.90;;;;;;4993024;28;20049;-83
2023/07/01 09:07:08;;;;;;;7.35;6.70;;;19.30;99.90;;;;;;4993186;28;20408;-84
2023/07/01 09:09:34;;;;;;;11.10;7.50;;;19.30;99.90;;;;;;4975565;28;20041;-83
2023/07/01 09:12:00;;;;;;;13.38;12.35;;;19.30;99.90;;;;;;5009923;28;20197;-84
2023/07/01 09:14:25;;;;;;;7.30;6.60;;;19.30;99.90;;;;;;4976566;28;20404;-83
2023/07/01 09:16:51;;;;;;;8.60;7.90;;;19.40;99.90;;;;;;4992704;28;20038;-84
2023/07/01 09:19:16;;;;;;;10.07;9.20;;;19.40;99.90;;;;;;4992861;28;20046;-84
2023/07/01 09:21:43;;;;;;;8.10;6.75;;;19.40;99.90;;;;;;4992698;28;20069;-83
2023/07/01 09:24:11;;;;;;;7.70;7.03;;;19.40;99.90;;;;;;4992096;28;20117;-83
2023/07/01 09:26:37;;;;;;;10.43;7.47;;;19.50;99.90;;;;;;4993051;28;20046;-83
2023/07/01 09:29:12;;;;;;;8.52;7.72;;;19.60;99.90;;;;;;4977294;28;20034;-83
2023/07/01 09:31:48;;;;;;;13.02;12.02;;;19.70;99.90;;;;;;4977441;28;20042;-82
2023/07/01 09:34:15;;;;;;;6.63;6.00;;;19.80;99.90;;;;;;4992576;28;20577;-83
2023/07/01 09:36:40;;;;;;;9.77;7.40;;;19.90;99.90;;;;;;4976808;28;20515;-82
2023/07/01 09:39:06;;;;;;;8.80;7.60;;;20.00;99.90;;;;;;4992929;28;20038;-83
2023/07/01 09:41:32;;;;;;;10.57;8.77;;;19.90;99.90;;;;;;4992379;28;20046;-84
2023/07/01 09:43:59;;;;;;;10.55;8.70;;;19.90;99.90;;;;;;4976489;28;20038;-83
2023/07/01 09:46:40;;;;;;;6.97;6.30;;;19.90;99.90;;;;;;4992869;28;20033;-83
2023/07/01 09:49:07;;;;;;;8.50;7.65;;;19.90;99.90;;;;;;5011002;28;20042;-83
2023/07/01 09:51:33;;;;;;;8.05;7.25;;;20.00;99.90;;;;;;4977202;28;20033;-84
2023/07/01 09:53:58;;;;;;;6.55;5.95;;;20.00;99.90;;;;;;5010212;28;20056;-83
2023/07/01 09:56:24;;;;;;;8.85;8.15;;;20.20;99.90;;;;;;4992678;28;20041;-84
2023/07/01 09:58:50;;;;;;;8.27;5.30;;;20.20;99.90;;;;;;4993143;28;20047;-83
2023/07/01 10:01:18;;;;;;;6.05;5.45;;;20.20;99.90;;;;;;4992963;28;20074;-84
2023/07/01 10:03:44;;;;;;;7.15;6.55;;;20.20;99.90;;;;;;4993174;28;20492;-83
2023/07/01 10:06:11;;;;;;;7.28;6.60;;;20.20;99.90;;;;;;5010933;28;20037;-84
2023/07/01 10:08:37;;;;;;;6.78;6.15;;;20.20;99.90;;;;;;5010549;28;20192;-84
2023/07/01 10:11:11;;;;;;;5.65;5.15;;;20.30;99.90;;;;;;4992488;28;20390;-84
2023/07/01 10:13:52;;;;;;;11.07;10.27;;;20.50;99.90;;;;;;4992712;28;20069;-83
2023/07/01 10:16:19;;;;;;;9.25;8.55;;;20.60;99.90;;;;;;4976506;28;20467;-83
2023/07/01 10:18:45;;;;;;;9.45;8.65;;;20.60;99.90;;;;;;4992824;28;20400;-83
2023/07/01 10:21:23;;;;;;;10.77;7.93;;;20.60;99.90;;;;;;4976457;28;20253;-83
2023/07/01 10:23:52;;;;;;;10.82;9.93;;;20.60;99.90;;;;;;4991842;28;20115;-84
2023/07/01 10:26:37;;;;;;;8.63;7.93;;;20.50;99.90;;;;;;4975245;28;20069;-84
2023/07/01 10:29:27;;;;;;;7.15;6.45;;;20.50;99.90;;;;;;4992497;28;20037;-82
2023/07/01 10:32:08;;;;;;;8.43;7.72;;;20.50;99.90;;;;;;4992093;28;20045;-82
2023/07/01 10:34:52;;;;;;;10.27;9.45;;;20.50;99.90;;;;;;4992331;28;20045;-82
2023/07/01 10:37:19;;;;;;;6.47;5.88;;;20.60;99.90;;;;;;4991549;28;20113;-83
2023/07/01 10:39:45;;;;;;;6.85;6.25;;;20.70;99.90;;;;;;4992116;28;20045;-82
2023/07/01 10:42:25;;;;;;;7.85;7.05;;;20.80;99.90;;;;;;4991268;28;20046;-83
2023/07/01 10:44:50;;;;;;;7.80;7.20;;;20.80;99.90;;;;;;4990717;28;20044;-82
2023/07/01 10:47:16;;;;;;;10.15;9.30;;;20.80;99.90;;;;;;4974690;28;20034;-83
2023/07/01 10:50:02;;;;;;;10.48;9.68;;;20.90;99.90;;;;;;4975271;28;20271;-82
2023/07/01 10:52:28;;;;;;;10.38;9.35;;;20.70;99.90;;;;;;4975286;28;20037;-82
2023/07/01 10:54:53;;;;;;;10.48;9.68;;;20.60;99.90;;;;;;5009693;28;20042;-82
2023/07/01 10:57:19;;;;;;;10.65;9.85;;;20.60;99.90;;;;;;4992084;28;20052;-82
2023/07/01 10:59:45;;;;;;;9.73;8.88;;;20.60;99.90;;;;;;4976062;28;20030;-82
2023/07/01 11:02:31;;;;;;;9.48;8.73;;;20.60;99.90;;;;;;4975776;28;20041;-82
2023/07/01 11:04:56;;;;;;;10.65;9.93;;;20.60;99.90;;;;;;4991983;28;20566;-82
2023/07/01 11:07:26;;;;;;;8.48;6.78;;;20.70;99.90;;;;;;4991708;28;20069;-82
2023/07/01 11:09:54;;;;;;;7.50;6.90;;;20.70;99.90;;;;;;5008581;28;20061;-82
2023/07/01 11:12:19;;;;;;;7.38;6.68;;;20.70;99.90;;;;;;4991898;28;20527;-83
2023/07/01 11:14:45;;;;;;;7.10;6.60;;;20.70;99.90;;;;;;4975569;28;20081;-82
2023/07/01 11:17:17;;;;;;;4.47;4.07;;;20.70;99.90;;;;;;4975317;28;20073;-82
2023/07/01 11:19:44;;;;;;;6.22;5.72;;;20.60;99.90;;;;;;4976357;28;20038;-81
2023/07/01 11:22:14;;;;;;;5.80;3.70;;;20.60;99.90;;;;;;5008627;28;20037;-81
2023/07/01 11:24:40;;;;;;;6.63;6.13;;;20.60;99.90;;;;;;4991139;28;20061;-82
2023/07/01 11:27:08;;;;;;;5.28;4.88;;;20.60;99.90;;;;;;4974584;28;20125;-79
2023/07/01 11:29:40;;;;;;;6.25;5.05;;;20.60;99.90;;;;;;4990855;28;20072;-81
2023/07/01 11:32:12;;;;;;;5.55;4.38;;;20.60;99.90;;;;;;4991688;28;20191;-80
2023/07/01 11:34:39;;;;;;;5.07;4.68;;;20.80;99.90;;;;;;4974485;28;20129;-82
2023/07/01 11:37:05;;;;;;;4.07;3.78;;;21.00;99.90;;;;;;4991524;28;20365;-82
2023/07/01 11:39:31;;;;;;;6.25;5.75;;;21.00;99.90;;;;;;5009329;28;20042;-82
2023/07/01 11:42:03;;;;;;;5.25;4.85;;;21.20;99.90;;;;;;4991201;28;20092;-82
2023/07/01 11:44:32;;;;;;;11.15;6.38;;;21.40;99.90;;;;;;4975046;28;20038;-82
2023/07/01 11:46:58;;;;;;;6.03;5.63;;;21.80;99.90;;;;;;4974803;28;20050;-82
2023/07/01 11:49:30;;;;;;;14.15;13.27;;;22.30;99.90;;;;;;4990758;28;20391;-82
2023/07/01 11:52:04;;;;;;;18.75;17.60;;;22.60;99.90;;;;;;4992073;28;20041;-82
2023/07/01 11:54:38;;;;;;;28.42;26.77;;;22.60;99.90;;;;;;4991251;28;20042;-82
2023/07/01 11:57:14;;;;;;;31.60;29.85;;;22.30;99.90;;;;;;5008173;28;20065;-81
2023/07/01 12:00:00;;;;;;;22.70;21.35;;;22.20;99.90;;;;;;4994928;28;20084;-82
2023/07/01 12:02:31;;;;;;;23.67;22.23;;;22.10;99.90;;;;;;4978628;28;20040;-82
2023/07/01 12:04:57;;;;;;;25.92;24.45;;;22.30;99.90;;;;;;4994491;28;20060;-81
2023/07/01 12:07:23;;;;;;;32.50;30.55;;;22.60;99.90;;;;;;4978594;28;20095;-82
2023/07/01 12:09:48;;;;;;;41.42;39.03;;;23.20;99.90;;;;;;4978547;28;20033;-81
2023/07/01 12:12:34;;;;;;;61.78;58.25;;;23.40;99.90;;;;;;4994887;28;20099;-83
2023/07/01 12:15:11;;;;;;;109.13;103.05;;;23.70;99.90;;;;;;4978749;28;20042;-82
2023/07/01 12:17:37;;;;;;;162.40;153.10;;;24.00;99.90;;;;;;4994375;28;20143;-81
2023/07/01 12:20:06;;;;;;;117.43;110.68;;;24.10;99.90;;;;;;4994127;28;20103;-83
2023/07/01 12:22:32;;;;;;;146.18;137.35;;;24.20;99.90;;;;;;4978670;28;20049;-82
2023/07/01 12:24:58;;;;;;;108.18;101.50;;;23.90;99.90;;;;;;4994584;28;20038;-82
2023/07/01 12:27:24;;;;;;;105.13;98.80;;;23.90;99.90;;;;;;4978528;28;20034;-82
2023/07/01 12:29:50;;;;;;;123.10;115.85;;;23.70;99.90;;;;;;4994750;28;20523;-83
2023/07/01 12:32:16;;;;;;;96.82;90.85;;;23.60;99.90;;;;;;4994568;28;20048;-83
2023/07/01 12:34:42;;;;;;;112.97;106.25;;;23.30;99.90;;;;;;4977495;28;20150;-82